sensor_id;sensor_type;location;lat;lon;timestamp;P1;durP1;ratioP1;P2;durP2;ratioP2
50291;SDS011;36190;54.980;73.388;2023-02-01T00:01:37;18.63;;;7.50;;
50291;SDS011;36190;54.980;73.388;2023-02-01T00:04:04;24.00;;;7.87;;
50291;SDS011;36190;54.980;73.388;2023-02-01T00:06:31;21.53;;;9.17;;
50291;SDS011;36190;54.980;73.388;2023-02-01T00:08:59;26.43;;;8.67;;
50291;SDS011;36190;54.980;73.388;2023-02-01T00:11:28;30.07;;;8.43;;
50291;SDS011;36190;54.980;73.388;2023-02-01T00:13:56;24.73;;;9.30;;
50291;SDS011;36190;54.980;73.388;2023-02-01T00:16:24;29.17;;;9.57;;
50291;SDS011;36190;54.980;73.388;2023-02-01T00:18:56;28.40;;;9.53;;
50291;SDS011;36190;54.980;73.388;2023-02-01T00:21:25;26.17;;;9.90;;
50291;SDS011;36190;54.980;73.388;2023-02-01T00:23:52;36.33;;;13.30;;
50291;SDS011;36190;54.980;73.388;2023-02-01T00:26:22;32.57;;;10.57;;
50291;SDS011;36190;54.980;73.388;2023-02-01T00:28:55;33.70;;;11.07;;
50291;SDS011;36190;54.980;73.388;2023-02-01T00:31:23;37.00;;;10.83;;
50291;SDS011;36190;54.980;73.388;2023-02-01T00:33:50;28.87;;;11.70;;
50291;SDS011;36190;54.980;73.388;2023-02-01T00:36:18;35.37;;;11.37;;
50291;SDS011;36190;54.980;73.388;2023-02-01T00:38:45;29.37;;;9.80;;
50291;SDS011;36190;54.980;73.388;2023-02-01T00:41:13;35.43;;;10.47;;
50291;SDS011;36190;54.980;73.388;2023-02-01T00:43:42;31.57;;;11.27;;
50291;SDS011;36190;54.980;73.388;2023-02-01T00:46:12;46.63;;;18.33;;
50291;SDS011;36190;54.980;73.388;2023-02-01T00:48:41;59.73;;;20.93;;
50291;SDS011;36190;54.980;73.388;2023-02-01T00:51:09;61.13;;;21.53;;
50291;SDS011;36190;54.980;73.388;2023-02-01T00:53:38;39.43;;;13.53;;
50291;SDS011;36190;54.980;73.388;2023-02-01T00:56:06;34.43;;;15.87;;
50291;SDS011;36190;54.980;73.388;2023-02-01T00:58:34;31.77;;;12.13;;
50291;SDS011;36190;54.980;73.388;2023-02-01T01:01:02;36.00;;;11.20;;
50291;SDS011;36190;54.980;73.388;2023-02-01T01:03:34;30.33;;;11.30;;
50291;SDS011;36190;54.980;73.388;2023-02-01T01:06:03;26.07;;;10.27;;
50291;SDS011;36190;54.980;73.388;2023-02-01T01:08:32;29.67;;;10.33;;
50291;SDS011;36190;54.980;73.388;2023-02-01T01:11:03;33.00;;;12.20;;
50291;SDS011;36190;54.980;73.388;2023-02-01T01:13:32;32.33;;;11.10;;
50291;SDS011;36190;54.980;73.388;2023-02-01T01:16:00;28.23;;;10.93;;
50291;SDS011;36190;54.980;73.388;2023-02-01T01:18:29;29.60;;;10.80;;
50291;SDS011;36190;54.980;73.388;2023-02-01T01:20:58;29.87;;;13.30;;
50291;SDS011;36190;54.980;73.388;2023-02-01T01:23:27;34.03;;;12.47;;
50291;SDS011;36190;54.980;73.388;2023-02-01T01:25:54;39.03;;;12.73;;
50291;SDS011;36190;54.980;73.388;2023-02-01T01:28:22;37.03;;;11.93;;
50291;SDS011;36190;54.980;73.388;2023-02-01T01:30:49;33.50;;;12.53;;
50291;SDS011;36190;54.980;73.388;2023-02-01T01:33:17;41.00;;;12.97;;
50291;SDS011;36190;54.980;73.388;2023-02-01T01:35:46;32.77;;;14.17;;
50291;SDS011;36190;54.980;73.388;2023-02-01T01:38:15;46.73;;;17.50;;
50291;SDS011;36190;54.980;73.388;2023-02-01T01:40:44;46.80;;;17.03;;
50291;SDS011;36190;54.980;73.388;2023-02-01T01:43:12;61.53;;;21.83;;
50291;SDS011;36190;54.980;73.388;2023-02-01T01:45:41;70.03;;;24.60;;
50291;SDS011;36190;54.980;73.388;2023-02-01T01:48:11;43.53;;;15.37;;
50291;SDS011;36190;54.980;73.388;2023-02-01T01:50:43;34.15;;;11.70;;
50291;SDS011;36190;54.980;73.388;2023-02-01T01:53:16;34.10;;;13.03;;
50291;SDS011;36190;54.980;73.388;2023-02-01T01:55:47;31.73;;;11.90;;
50291;SDS011;36190;54.980;73.388;2023-02-01T01:58:19;36.93;;;15.63;;
50291;SDS011;36190;54.980;73.388;2023-02-01T02:00:50;36.03;;;15.20;;
50291;SDS011;36190;54.980;73.388;2023-02-01T02:03:20;31.93;;;13.27;;
50291;SDS011;36190;54.980;73.388;2023-02-01T02:05:49;34.13;;;13.00;;
50291;SDS011;36190;54.980;73.388;2023-02-01T02:08:20;31.37;;;12.53;;
50291;SDS011;36190;54.980;73.388;2023-02-01T02:10:50;40.70;;;14.57;;
50291;SDS011;36190;54.980;73.388;2023-02-01T02:13:27;33.87;;;13.70;;
50291;SDS011;36190;54.980;73.388;2023-02-01T02:16:03;35.40;;;12.77;;
50291;SDS011;36190;54.980;73.388;2023-02-01T02:18:42;38.40;;;12.57;;
50291;SDS011;36190;54.980;73.388;2023-02-01T02:21:23;37.77;;;14.17;;
50291;SDS011;36190;54.980;73.388;2023-02-01T02:27:21;39.40;;;16.73;;
50291;SDS011;36190;54.980;73.388;2023-02-01T02:30:07;45.70;;;15.33;;
50291;SDS011;36190;54.980;73.388;2023-02-01T02:36:16;49.17;;;18.37;;
50291;SDS011;36190;54.980;73.388;2023-02-01T02:38:52;64.53;;;20.83;;
50291;SDS011;36190;54.980;73.388;2023-02-01T02:41:30;54.80;;;20.60;;
50291;SDS011;36190;54.980;73.388;2023-02-01T02:44:20;55.27;;;20.10;;
50291;SDS011;36190;54.980;73.388;2023-02-01T02:47:14;63.53;;;23.77;;
50291;SDS011;36190;54.980;73.388;2023-02-01T02:49:53;71.70;;;25.30;;
50291;SDS011;36190;54.980;73.388;2023-02-01T02:52:44;62.83;;;22.93;;
50291;SDS011;36190;54.980;73.388;2023-02-01T02:55:36;69.37;;;20.07;;
50291;SDS011;36190;54.980;73.388;2023-02-01T02:58:06;56.63;;;21.23;;
50291;SDS011;36190;54.980;73.388;2023-02-01T03:00:52;64.90;;;21.57;;
50291;SDS011;36190;54.980;73.388;2023-02-01T03:03:38;57.60;;;20.53;;
50291;SDS011;36190;54.980;73.388;2023-02-01T03:06:25;53.53;;;20.17;;
50291;SDS011;36190;54.980;73.388;2023-02-01T03:08:53;42.93;;;15.67;;
50291;SDS011;36190;54.980;73.388;2023-02-01T03:11:25;42.83;;;17.57;;
50291;SDS011;36190;54.980;73.388;2023-02-01T03:14:14;39.93;;;16.80;;
50291;SDS011;36190;54.980;73.388;2023-02-01T03:16:44;47.67;;;17.53;;
50291;SDS011;36190;54.980;73.388;2023-02-01T03:19:19;50.80;;;20.27;;
50291;SDS011;36190;54.980;73.388;2023-02-01T03:21:52;53.13;;;23.03;;
50291;SDS011;36190;54.980;73.388;2023-02-01T03:24:23;43.87;;;19.43;;
50291;SDS011;36190;54.980;73.388;2023-02-01T03:27:01;47.70;;;17.53;;
50291;SDS011;36190;54.980;73.388;2023-02-01T03:29:34;50.60;;;18.27;;
50291;SDS011;36190;54.980;73.388;2023-02-01T03:32:07;49.20;;;16.43;;
50291;SDS011;36190;54.980;73.388;2023-02-01T03:34:36;43.03;;;15.97;;
50291;SDS011;36190;54.980;73.388;2023-02-01T03:37:05;39.57;;;15.20;;
50291;SDS011;36190;54.980;73.388;2023-02-01T03:39:36;45.13;;;17.63;;
50291;SDS011;36190;54.980;73.388;2023-02-01T03:42:09;47.10;;;18.60;;
50291;SDS011;36190;54.980;73.388;2023-02-01T03:44:41;60.60;;;22.10;;
50291;SDS011;36190;54.980;73.388;2023-02-01T03:47:16;46.47;;;17.27;;
50291;SDS011;36190;54.980;73.388;2023-02-01T03:49:49;54.20;;;19.80;;
50291;SDS011;36190;54.980;73.388;2023-02-01T03:52:22;49.03;;;18.00;;
50291;SDS011;36190;54.980;73.388;2023-02-01T03:54:53;45.67;;;16.87;;
50291;SDS011;36190;54.980;73.388;2023-02-01T03:57:23;57.17;;;20.33;;
50291;SDS011;36190;54.980;73.388;2023-02-01T03:59:53;47.87;;;17.17;;
50291;SDS011;36190;54.980;73.388;2023-02-01T04:02:29;56.40;;;20.43;;
50291;SDS011;36190;54.980;73.388;2023-02-01T04:04:57;48.43;;;19.07;;
50291;SDS011;36190;54.980;73.388;2023-02-01T04:07:26;51.23;;;18.20;;
50291;SDS011;36190;54.980;73.388;2023-02-01T04:09:53;51.73;;;18.83;;
50291;SDS011;36190;54.980;73.388;2023-02-01T04:12:20;64.70;;;22.83;;
50291;SDS011;36190;54.980;73.388;2023-02-01T04:14:48;75.40;;;26.07;;
50291;SDS011;36190;54.980;73.388;2023-02-01T04:17:15;52.97;;;20.67;;
50291;SDS011;36190;54.980;73.388;2023-02-01T04:19:43;66.93;;;25.83;;
50291;SDS011;36190;54.980;73.388;2023-02-01T04:22:10;52.80;;;21.63;;
50291;SDS011;36190;54.980;73.388;2023-02-01T04:24:40;53.57;;;20.97;;
50291;SDS011;36190;54.980;73.388;2023-02-01T04:27:07;52.27;;;18.73;;
50291;SDS011;36190;54.980;73.388;2023-02-01T04:29:34;53.13;;;20.43;;
50291;SDS011;36190;54.980;73.388;2023-02-01T04:32:02;51.57;;;20.07;;
50291;SDS011;36190;54.980;73.388;2023-02-01T04:34:30;70.53;;;26.40;;
50291;SDS011;36190;54.980;73.388;2023-02-01T04:36:57;49.67;;;20.07;;
50291;SDS011;36190;54.980;73.388;2023-02-01T04:39:25;66.93;;;20.73;;
50291;SDS011;36190;54.980;73.388;2023-02-01T04:41:54;61.97;;;22.70;;
50291;SDS011;36190;54.980;73.388;2023-02-01T04:44:21;61.27;;;24.17;;
50291;SDS011;36190;54.980;73.388;2023-02-01T04:46:49;52.07;;;20.60;;
50291;SDS011;36190;54.980;73.388;2023-02-01T04:49:16;53.20;;;21.07;;
50291;SDS011;36190;54.980;73.388;2023-02-01T04:51:43;47.70;;;19.37;;
50291;SDS011;36190;54.980;73.388;2023-02-01T04:54:11;39.90;;;18.20;;
50291;SDS011;36190;54.980;73.388;2023-02-01T04:56:38;47.17;;;20.27;;
50291;SDS011;36190;54.980;73.388;2023-02-01T04:59:10;51.43;;;19.23;;
50291;SDS011;36190;54.980;73.388;2023-02-01T05:01:37;49.30;;;17.53;;
50291;SDS011;36190;54.980;73.388;2023-02-01T05:04:05;41.47;;;16.67;;
50291;SDS011;36190;54.980;73.388;2023-02-01T05:06:32;70.13;;;26.20;;
50291;SDS011;36190;54.980;73.388;2023-02-01T05:09:00;34.67;;;15.07;;
50291;SDS011;36190;54.980;73.388;2023-02-01T05:11:27;31.97;;;13.07;;
50291;SDS011;36190;54.980;73.388;2023-02-01T05:14:13;37.13;;;12.17;;
50291;SDS011;36190;54.980;73.388;2023-02-01T05:16:41;24.13;;;11.20;;
50291;SDS011;36190;54.980;73.388;2023-02-01T05:19:08;27.20;;;9.17;;
50291;SDS011;36190;54.980;73.388;2023-02-01T05:21:36;28.83;;;9.40;;
50291;SDS011;36190;54.980;73.388;2023-02-01T05:24:03;27.73;;;10.73;;
50291;SDS011;36190;54.980;73.388;2023-02-01T05:26:38;20.17;;;8.40;;
50291;SDS011;36190;54.980;73.388;2023-02-01T05:29:06;24.73;;;10.17;;
50291;SDS011;36190;54.980;73.388;2023-02-01T05:31:36;27.50;;;9.93;;
50291;SDS011;36190;54.980;73.388;2023-02-01T05:34:04;22.97;;;9.77;;
50291;SDS011;36190;54.980;73.388;2023-02-01T05:36:31;33.13;;;12.67;;
50291;SDS011;36190;54.980;73.388;2023-02-01T05:38:59;31.63;;;11.33;;
50291;SDS011;36190;54.980;73.388;2023-02-01T05:41:26;27.63;;;10.90;;
50291;SDS011;36190;54.980;73.388;2023-02-01T05:43:53;33.13;;;12.07;;
50291;SDS011;36190;54.980;73.388;2023-02-01T05:46:21;30.53;;;11.97;;
50291;SDS011;36190;54.980;73.388;2023-02-01T05:48:50;27.53;;;11.77;;
50291;SDS011;36190;54.980;73.388;2023-02-01T05:51:17;29.27;;;11.40;;
50291;SDS011;36190;54.980;73.388;2023-02-01T05:53:45;28.13;;;10.17;;
50291;SDS011;36190;54.980;73.388;2023-02-01T05:56:12;31.80;;;12.13;;
50291;SDS011;36190;54.980;73.388;2023-02-01T05:58:40;31.73;;;12.97;;
50291;SDS011;36190;54.980;73.388;2023-02-01T06:01:07;28.37;;;11.70;;
50291;SDS011;36190;54.980;73.388;2023-02-01T06:03:35;29.63;;;13.97;;
50291;SDS011;36190;54.980;73.388;2023-02-01T06:06:04;45.70;;;14.67;;
50291;SDS011;36190;54.980;73.388;2023-02-01T06:08:32;42.50;;;14.93;;
50291;SDS011;36190;54.980;73.388;2023-02-01T06:10:59;34.13;;;12.07;;
50291;SDS011;36190;54.980;73.388;2023-02-01T06:13:27;30.07;;;10.87;;
50291;SDS011;36190;54.980;73.388;2023-02-01T06:15:55;30.07;;;12.43;;
50291;SDS011;36190;54.980;73.388;2023-02-01T06:18:23;32.33;;;11.43;;
50291;SDS011;36190;54.980;73.388;2023-02-01T06:20:53;38.53;;;12.97;;
50291;SDS011;36190;54.980;73.388;2023-02-01T06:23:23;28.13;;;11.20;;
50291;SDS011;36190;54.980;73.388;2023-02-01T06:25:51;29.13;;;11.17;;
50291;SDS011;36190;54.980;73.388;2023-02-01T06:28:18;32.07;;;10.80;;
50291;SDS011;36190;54.980;73.388;2023-02-01T06:30:46;28.03;;;10.63;;
50291;SDS011;36190;54.980;73.388;2023-02-01T06:33:14;27.03;;;10.93;;
50291;SDS011;36190;54.980;73.388;2023-02-01T06:35:41;27.57;;;11.67;;
50291;SDS011;36190;54.980;73.388;2023-02-01T06:38:10;26.53;;;9.27;;
50291;SDS011;36190;54.980;73.388;2023-02-01T06:40:40;20.83;;;8.33;;
50291;SDS011;36190;54.980;73.388;2023-02-01T06:43:07;27.83;;;10.27;;
50291;SDS011;36190;54.980;73.388;2023-02-01T06:45:35;28.90;;;11.10;;
50291;SDS011;36190;54.980;73.388;2023-02-01T06:48:03;24.17;;;9.97;;
50291;SDS011;36190;54.980;73.388;2023-02-01T06:50:31;27.83;;;10.70;;
50291;SDS011;36190;54.980;73.388;2023-02-01T06:53:00;29.77;;;11.77;;
50291;SDS011;36190;54.980;73.388;2023-02-01T06:55:27;38.03;;;13.03;;
50291;SDS011;36190;54.980;73.388;2023-02-01T06:57:56;28.30;;;10.43;;
50291;SDS011;36190;54.980;73.388;2023-02-01T07:00:24;32.93;;;12.67;;
50291;SDS011;36190;54.980;73.388;2023-02-01T07:02:51;32.03;;;12.20;;
50291;SDS011;36190;54.980;73.388;2023-02-01T07:05:19;24.20;;;9.97;;
50291;SDS011;36190;54.980;73.388;2023-02-01T07:07:47;23.60;;;10.53;;
50291;SDS011;36190;54.980;73.388;2023-02-01T07:10:15;26.93;;;11.07;;
50291;SDS011;36190;54.980;73.388;2023-02-01T07:12:42;32.07;;;11.57;;
50291;SDS011;36190;54.980;73.388;2023-02-01T07:15:11;29.77;;;12.70;;
50291;SDS011;36190;54.980;73.388;2023-02-01T07:17:39;31.87;;;12.07;;
50291;SDS011;36190;54.980;73.388;2023-02-01T07:20:07;27.87;;;12.10;;
50291;SDS011;36190;54.980;73.388;2023-02-01T07:22:35;29.63;;;11.90;;
50291;SDS011;36190;54.980;73.388;2023-02-01T07:25:03;30.43;;;12.33;;
50291;SDS011;36190;54.980;73.388;2023-02-01T07:27:33;29.43;;;12.50;;
50291;SDS011;36190;54.980;73.388;2023-02-01T07:30:01;31.10;;;11.33;;
50291;SDS011;36190;54.980;73.388;2023-02-01T07:32:30;22.67;;;10.17;;
50291;SDS011;36190;54.980;73.388;2023-02-01T07:34:57;29.40;;;11.13;;
50291;SDS011;36190;54.980;73.388;2023-02-01T07:37:25;28.63;;;11.47;;
50291;SDS011;36190;54.980;73.388;2023-02-01T07:39:52;29.37;;;10.67;;
50291;SDS011;36190;54.980;73.388;2023-02-01T07:42:20;26.50;;;12.60;;
50291;SDS011;36190;54.980;73.388;2023-02-01T07:44:47;31.50;;;11.97;;
50291;SDS011;36190;54.980;73.388;2023-02-01T07:47:14;30.53;;;11.63;;
50291;SDS011;36190;54.980;73.388;2023-02-01T07:49:43;30.10;;;10.70;;
50291;SDS011;36190;54.980;73.388;2023-02-01T07:52:11;32.30;;;10.73;;
50291;SDS011;36190;54.980;73.388;2023-02-01T07:54:42;34.73;;;12.47;;
50291;SDS011;36190;54.980;73.388;2023-02-01T07:57:09;26.30;;;11.87;;
50291;SDS011;36190;54.980;73.388;2023-02-01T07:59:38;29.00;;;11.27;;
50291;SDS011;36190;54.980;73.388;2023-02-01T08:02:26;24.77;;;10.73;;
50291;SDS011;36190;54.980;73.388;2023-02-01T08:04:54;24.83;;;10.37;;
50291;SDS011;36190;54.980;73.388;2023-02-01T08:07:22;31.97;;;12.67;;
50291;SDS011;36190;54.980;73.388;2023-02-01T08:09:49;26.20;;;11.27;;
50291;SDS011;36190;54.980;73.388;2023-02-01T08:12:16;29.37;;;11.90;;
50291;SDS011;36190;54.980;73.388;2023-02-01T08:14:44;35.37;;;14.53;;
50291;SDS011;36190;54.980;73.388;2023-02-01T08:17:11;33.67;;;13.80;;
50291;SDS011;36190;54.980;73.388;2023-02-01T08:19:39;37.80;;;16.30;;
50291;SDS011;36190;54.980;73.388;2023-02-01T08:22:08;35.37;;;16.67;;
50291;SDS011;36190;54.980;73.388;2023-02-01T08:24:35;35.57;;;16.57;;
50291;SDS011;36190;54.980;73.388;2023-02-01T08:27:05;30.13;;;12.97;;
50291;SDS011;36190;54.980;73.388;2023-02-01T08:29:33;32.13;;;13.53;;
50291;SDS011;36190;54.980;73.388;2023-02-01T08:32:00;26.77;;;11.40;;
50291;SDS011;36190;54.980;73.388;2023-02-01T08:34:28;23.90;;;11.17;;
50291;SDS011;36190;54.980;73.388;2023-02-01T08:36:55;29.93;;;11.93;;
50291;SDS011;36190;54.980;73.388;2023-02-01T08:39:28;26.57;;;11.23;;
50291;SDS011;36190;54.980;73.388;2023-02-01T08:41:55;24.93;;;10.83;;
50291;SDS011;36190;54.980;73.388;2023-02-01T08:44:40;23.90;;;10.53;;
50291;SDS011;36190;54.980;73.388;2023-02-01T08:47:07;26.10;;;10.93;;
50291;SDS011;36190;54.980;73.388;2023-02-01T08:49:35;27.93;;;12.57;;
50291;SDS011;36190;54.980;73.388;2023-02-01T08:52:03;27.67;;;10.97;;
50291;SDS011;36190;54.980;73.388;2023-02-01T08:54:32;32.93;;;11.57;;
50291;SDS011;36190;54.980;73.388;2023-02-01T08:56:59;28.07;;;10.97;;
50291;SDS011;36190;54.980;73.388;2023-02-01T08:59:27;27.50;;;11.87;;
50291;SDS011;36190;54.980;73.388;2023-02-01T09:01:55;28.27;;;11.67;;
50291;SDS011;36190;54.980;73.388;2023-02-01T09:04:23;30.27;;;12.57;;
50291;SDS011;36190;54.980;73.388;2023-02-01T09:06:50;31.37;;;12.93;;
50291;SDS011;36190;54.980;73.388;2023-02-01T09:09:20;29.53;;;13.27;;
50291;SDS011;36190;54.980;73.388;2023-02-01T09:11:50;28.73;;;12.57;;
50291;SDS011;36190;54.980;73.388;2023-02-01T09:14:17;27.30;;;11.70;;
50291;SDS011;36190;54.980;73.388;2023-02-01T09:16:45;28.93;;;11.70;;
50291;SDS011;36190;54.980;73.388;2023-02-01T09:19:12;28.00;;;12.53;;
50291;SDS011;36190;54.980;73.388;2023-02-01T09:21:40;28.90;;;13.07;;
50291;SDS011;36190;54.980;73.388;2023-02-01T09:24:08;25.37;;;11.47;;
50291;SDS011;36190;54.980;73.388;2023-02-01T09:26:37;29.17;;;11.17;;
50291;SDS011;36190;54.980;73.388;2023-02-01T09:29:06;26.70;;;11.70;;
50291;SDS011;36190;54.980;73.388;2023-02-01T09:31:36;30.97;;;13.37;;
50291;SDS011;36190;54.980;73.388;2023-02-01T09:34:04;30.87;;;12.90;;
50291;SDS011;36190;54.980;73.388;2023-02-01T09:36:32;38.43;;;18.07;;
50291;SDS011;36190;54.980;73.388;2023-02-01T09:39:00;39.70;;;17.03;;
50291;SDS011;36190;54.980;73.388;2023-02-01T09:41:37;33.77;;;14.93;;
50291;SDS011;36190;54.980;73.388;2023-02-01T09:44:21;37.83;;;16.93;;
50291;SDS011;36190;54.980;73.388;2023-02-01T09:47:02;34.83;;;14.77;;
50291;SDS011;36190;54.980;73.388;2023-02-01T09:49:30;37.30;;;16.00;;
50291;SDS011;36190;54.980;73.388;2023-02-01T09:52:00;37.97;;;14.60;;
50291;SDS011;36190;54.980;73.388;2023-02-01T09:54:37;36.10;;;17.48;;
50291;SDS011;36190;54.980;73.388;2023-02-01T09:57:08;41.95;;;17.60;;
50291;SDS011;36190;54.980;73.388;2023-02-01T09:59:43;36.08;;;13.73;;
50291;SDS011;36190;54.980;73.388;2023-02-01T10:02:13;38.73;;;15.40;;
50291;SDS011;36190;54.980;73.388;2023-02-01T10:04:44;33.80;;;14.80;;
50291;SDS011;36190;54.980;73.388;2023-02-01T10:07:15;35.97;;;14.70;;
50291;SDS011;36190;54.980;73.388;2023-02-01T10:09:53;34.50;;;14.13;;
50291;SDS011;36190;54.980;73.388;2023-02-01T10:12:33;35.03;;;14.20;;
50291;SDS011;36190;54.980;73.388;2023-02-01T10:15:18;37.90;;;14.07;;
50291;SDS011;36190;54.980;73.388;2023-02-01T10:18:00;31.95;;;14.30;;
50291;SDS011;36190;54.980;73.388;2023-02-01T10:20:44;33.63;;;15.82;;
50291;SDS011;36190;54.980;73.388;2023-02-01T10:23:32;42.00;;;16.65;;
50291;SDS011;36190;54.980;73.388;2023-02-01T10:26:18;30.80;;;13.50;;
50291;SDS011;36190;54.980;73.388;2023-02-01T10:28:48;46.45;;;17.05;;
50291;SDS011;36190;54.980;73.388;2023-02-01T10:31:20;33.57;;;14.73;;
50291;SDS011;36190;54.980;73.388;2023-02-01T10:33:51;37.37;;;16.00;;
50291;SDS011;36190;54.980;73.388;2023-02-01T10:36:24;41.20;;;16.08;;
50291;SDS011;36190;54.980;73.388;2023-02-01T10:38:55;35.83;;;15.53;;
50291;SDS011;36190;54.980;73.388;2023-02-01T10:41:26;40.33;;;16.53;;
50291;SDS011;36190;54.980;73.388;2023-02-01T10:43:59;39.20;;;16.83;;
50291;SDS011;36190;54.980;73.388;2023-02-01T10:46:31;36.17;;;16.10;;
50291;SDS011;36190;54.980;73.388;2023-02-01T10:49:00;40.27;;;18.83;;
50291;SDS011;36190;54.980;73.388;2023-02-01T10:51:35;36.03;;;15.57;;
50291;SDS011;36190;54.980;73.388;2023-02-01T10:54:10;43.10;;;19.00;;
50291;SDS011;36190;54.980;73.388;2023-02-01T10:56:43;42.13;;;17.33;;
50291;SDS011;36190;54.980;73.388;2023-02-01T10:59:15;41.70;;;16.77;;
50291;SDS011;36190;54.980;73.388;2023-02-01T11:01:46;40.47;;;15.83;;
50291;SDS011;36190;54.980;73.388;2023-02-01T11:04:15;36.97;;;15.57;;
50291;SDS011;36190;54.980;73.388;2023-02-01T11:06:45;36.37;;;13.93;;
50291;SDS011;36190;54.980;73.388;2023-02-01T11:09:16;36.03;;;15.00;;
50291;SDS011;36190;54.980;73.388;2023-02-01T11:11:54;35.37;;;15.80;;
50291;SDS011;36190;54.980;73.388;2023-02-01T11:14:27;36.43;;;15.43;;
50291;SDS011;36190;54.980;73.388;2023-02-01T11:17:12;35.00;;;14.40;;
50291;SDS011;36190;54.980;73.388;2023-02-01T11:19:54;36.67;;;14.60;;
50291;SDS011;36190;54.980;73.388;2023-02-01T11:22:24;53.27;;;18.20;;
50291;SDS011;36190;54.980;73.388;2023-02-01T11:24:54;38.43;;;15.53;;
50291;SDS011;36190;54.980;73.388;2023-02-01T11:27:23;34.87;;;14.33;;
50291;SDS011;36190;54.980;73.388;2023-02-01T11:29:52;35.53;;;15.00;;
50291;SDS011;36190;54.980;73.388;2023-02-01T11:32:24;42.03;;;15.53;;
50291;SDS011;36190;54.980;73.388;2023-02-01T11:34:53;35.77;;;14.40;;
50291;SDS011;36190;54.980;73.388;2023-02-01T11:37:25;67.33;;;21.73;;
50291;SDS011;36190;54.980;73.388;2023-02-01T11:39:55;115.63;;;31.10;;
50291;SDS011;36190;54.980;73.388;2023-02-01T11:42:24;97.70;;;31.33;;
50291;SDS011;36190;54.980;73.388;2023-02-01T11:45:07;112.50;;;38.50;;
50291;SDS011;36190;54.980;73.388;2023-02-01T11:47:46;91.70;;;36.50;;
50291;SDS011;36190;54.980;73.388;2023-02-01T11:50:21;82.77;;;32.20;;
50291;SDS011;36190;54.980;73.388;2023-02-01T11:53:00;86.00;;;32.33;;
50291;SDS011;36190;54.980;73.388;2023-02-01T11:55:40;62.20;;;24.63;;
50291;SDS011;36190;54.980;73.388;2023-02-01T11:58:22;53.83;;;25.97;;
50291;SDS011;36190;54.980;73.388;2023-02-01T12:01:07;43.23;;;19.47;;
50291;SDS011;36190;54.980;73.388;2023-02-01T12:06:54;43.03;;;18.33;;
50291;SDS011;36190;54.980;73.388;2023-02-01T12:09:35;43.27;;;16.33;;
50291;SDS011;36190;54.980;73.388;2023-02-01T12:12:13;39.77;;;15.87;;
50291;SDS011;36190;54.980;73.388;2023-02-01T12:14:53;35.07;;;14.77;;
50291;SDS011;36190;54.980;73.388;2023-02-01T12:17:58;37.17;;;16.00;;
50291;SDS011;36190;54.980;73.388;2023-02-01T12:20:53;45.37;;;18.43;;
50291;SDS011;36190;54.980;73.388;2023-02-01T12:23:37;44.70;;;16.83;;
50291;SDS011;36190;54.980;73.388;2023-02-01T12:26:33;46.50;;;19.00;;
50291;SDS011;36190;54.980;73.388;2023-02-01T12:29:11;44.50;;;17.97;;
50291;SDS011;36190;54.980;73.388;2023-02-01T12:31:54;51.10;;;19.73;;
50291;SDS011;36190;54.980;73.388;2023-02-01T12:34:47;53.50;;;21.40;;
50291;SDS011;36190;54.980;73.388;2023-02-01T12:37:34;63.77;;;27.23;;
50291;SDS011;36190;54.980;73.388;2023-02-01T12:40:24;51.83;;;21.30;;
50291;SDS011;36190;54.980;73.388;2023-02-01T12:43:03;67.03;;;24.37;;
50291;SDS011;36190;54.980;73.388;2023-02-01T12:48:11;71.17;;;27.40;;
50291;SDS011;36190;54.980;73.388;2023-02-01T12:50:50;55.87;;;21.70;;
50291;SDS011;36190;54.980;73.388;2023-02-01T12:53:22;148.23;;;45.33;;
50291;SDS011;36190;54.980;73.388;2023-02-01T12:55:56;162.60;;;52.77;;
50291;SDS011;36190;54.980;73.388;2023-02-01T12:58:31;102.37;;;35.40;;
50291;SDS011;36190;54.980;73.388;2023-02-01T13:01:06;89.77;;;33.27;;
50291;SDS011;36190;54.980;73.388;2023-02-01T13:03:40;69.25;;;27.25;;
50291;SDS011;36190;54.980;73.388;2023-02-01T13:06:17;68.57;;;26.20;;
50291;SDS011;36190;54.980;73.388;2023-02-01T13:08:50;88.43;;;31.30;;
50291;SDS011;36190;54.980;73.388;2023-02-01T13:11:26;78.50;;;28.53;;
50291;SDS011;36190;54.980;73.388;2023-02-01T13:13:59;83.15;;;31.48;;
50291;SDS011;36190;54.980;73.388;2023-02-01T13:16:34;74.73;;;28.67;;
50291;SDS011;36190;54.980;73.388;2023-02-01T13:19:09;85.77;;;30.73;;
50291;SDS011;36190;54.980;73.388;2023-02-01T13:21:44;99.37;;;36.03;;
50291;SDS011;36190;54.980;73.388;2023-02-01T13:24:19;90.80;;;35.03;;
50291;SDS011;36190;54.980;73.388;2023-02-01T13:26:56;76.43;;;31.50;;
50291;SDS011;36190;54.980;73.388;2023-02-01T13:29:24;76.40;;;30.17;;
50291;SDS011;36190;54.980;73.388;2023-02-01T13:31:58;77.10;;;26.93;;
50291;SDS011;36190;54.980;73.388;2023-02-01T13:35:04;62.23;;;25.27;;
50291;SDS011;36190;54.980;73.388;2023-02-01T13:38:00;59.47;;;22.20;;
50291;SDS011;36190;54.980;73.388;2023-02-01T13:40:38;53.80;;;23.65;;
50291;SDS011;36190;54.980;73.388;2023-02-01T13:43:13;60.80;;;23.77;;
50291;SDS011;36190;54.980;73.388;2023-02-01T13:45:45;59.90;;;21.73;;
50291;SDS011;36190;54.980;73.388;2023-02-01T13:48:20;69.63;;;24.53;;
50291;SDS011;36190;54.980;73.388;2023-02-01T13:50:54;62.23;;;22.97;;
50291;SDS011;36190;54.980;73.388;2023-02-01T13:53:26;55.03;;;20.67;;
50291;SDS011;36190;54.980;73.388;2023-02-01T13:55:58;55.30;;;20.02;;
50291;SDS011;36190;54.980;73.388;2023-02-01T13:58:32;38.47;;;14.63;;
50291;SDS011;36190;54.980;73.388;2023-02-01T14:07:18;47.43;;;15.77;;
50291;SDS011;36190;54.980;73.388;2023-02-01T14:09:46;39.87;;;15.37;;
50291;SDS011;36190;54.980;73.388;2023-02-01T14:15:23;34.27;;;14.60;;
50291;SDS011;36190;54.980;73.388;2023-02-01T14:17:53;36.47;;;15.27;;
50291;SDS011;36190;54.980;73.388;2023-02-01T14:23:18;44.23;;;17.10;;
50291;SDS011;36190;54.980;73.388;2023-02-01T14:26:05;57.37;;;21.93;;
50291;SDS011;36190;54.980;73.388;2023-02-01T14:28:38;38.53;;;16.43;;
50291;SDS011;36190;54.980;73.388;2023-02-01T14:31:18;46.77;;;16.67;;
50291;SDS011;36190;54.980;73.388;2023-02-01T14:33:59;46.03;;;18.43;;
50291;SDS011;36190;54.980;73.388;2023-02-01T14:36:38;48.90;;;18.03;;
50291;SDS011;36190;54.980;73.388;2023-02-01T14:39:19;46.43;;;16.60;;
50291;SDS011;36190;54.980;73.388;2023-02-01T14:41:54;43.93;;;19.03;;
50291;SDS011;36190;54.980;73.388;2023-02-01T14:44:29;53.73;;;19.40;;
50291;SDS011;36190;54.980;73.388;2023-02-01T14:47:04;55.90;;;19.17;;
50291;SDS011;36190;54.980;73.388;2023-02-01T14:49:34;46.73;;;18.47;;
50291;SDS011;36190;54.980;73.388;2023-02-01T14:52:06;45.73;;;18.53;;
50291;SDS011;36190;54.980;73.388;2023-02-01T14:54:39;51.50;;;18.93;;
50291;SDS011;36190;54.980;73.388;2023-02-01T14:57:11;58.77;;;18.97;;
50291;SDS011;36190;54.980;73.388;2023-02-01T14:59:42;51.17;;;17.93;;
50291;SDS011;36190;54.980;73.388;2023-02-01T15:02:17;42.90;;;18.53;;